createdAt,value
2019-04-20T00:01:31.998Z,7.96
2019-04-20T00:03:57.377Z,7.90
2019-04-20T00:06:27.112Z,7.83
2019-04-20T00:09:01.829Z,7.79
2019-04-20T00:11:28.340Z,7.77
2019-04-20T00:14:03.257Z,7.80
2019-04-20T00:16:25.176Z,7.71
2019-04-20T00:18:58.216Z,7.73
2019-04-20T00:21:46.989Z,7.68
2019-04-20T00:24:27.291Z,7.67
2019-04-20T00:27:16.214Z,7.62
2019-04-20T00:29:47.824Z,7.59
2019-04-20T00:32:06.316Z,7.52
2019-04-20T00:34:31.450Z,7.40
2019-04-20T00:36:56.145Z,7.37
2019-04-20T00:39:25.764Z,7.28
2019-04-20T00:42:01.095Z,7.24
2019-04-20T00:44:30.386Z,7.23
2019-04-20T00:47:08.465Z,7.22
2019-04-20T00:49:38.896Z,7.13
2019-04-20T00:54:30.555Z,7.08
2019-04-20T00:57:09.274Z,7.09
2019-04-20T00:59:51.764Z,7.05
2019-04-20T01:02:18.017Z,7.03
2019-04-20T01:04:47.936Z,6.99
2019-04-20T01:07:39.462Z,6.91
2019-04-20T01:10:04.999Z,6.93
2019-04-20T01:12:36.873Z,6.86
2019-04-20T01:15:07.809Z,6.77
2019-04-20T01:17:37.941Z,6.72
2019-04-20T01:20:05.181Z,6.67
2019-04-20T01:22:40.273Z,6.62
2019-04-20T01:25:09.837Z,6.58
2019-04-20T01:27:50.118Z,6.53
2019-04-20T01:30:14.739Z,6.51
2019-04-20T01:32:55.165Z,6.49
2019-04-20T01:35:29.019Z,6.42
2019-04-20T01:37:57.500Z,6.37
2019-04-20T01:40:11.373Z,6.33
2019-04-20T01:42:42.469Z,6.31
2019-04-20T01:45:18.029Z,6.25
2019-04-20T01:47:47.199Z,6.25
2019-04-20T01:50:20.309Z,6.22
2019-04-20T01:52:55.019Z,6.29
2019-04-20T01:55:34.637Z,6.26
2019-04-20T01:58:11.889Z,6.21
2019-04-20T02:00:39.910Z,6.18
2019-04-20T02:03:31.315Z,6.16
2019-04-20T02:06:04.487Z,6.18
2019-04-20T02:08:29.869Z,6.21
2019-04-20T02:11:01.921Z,6.27
2019-04-20T02:13:36.134Z,6.28
2019-04-20T02:16:09.766Z,6.31
2019-04-20T02:18:40.100Z,6.31
2019-04-20T02:21:15.197Z,6.31
2019-04-20T02:23:38.472Z,6.35
2019-04-20T02:26:00.774Z,6.37
2019-04-20T02:28:56.867Z,6.36
2019-04-20T02:31:55.371Z,6.33
2019-04-20T02:34:06.968Z,6.34
2019-04-20T02:36:53.225Z,6.34
2019-04-20T02:42:05.429Z,6.33
2019-04-20T02:44:42.627Z,6.30
2019-04-20T02:46:55.842Z,6.31
2019-04-20T02:51:52.711Z,6.31
2019-04-20T02:54:26.454Z,6.31
2019-04-20T03:01:45.536Z,6.39
2019-04-20T03:03:58.234Z,6.34
2019-04-20T03:06:36.576Z,6.35
2019-04-20T03:09:20.141Z,6.34
2019-04-20T03:11:58.471Z,6.29
2019-04-20T03:14:16.358Z,6.30
2019-04-20T03:16:43.678Z,6.25
2019-04-20T03:19:11.788Z,6.27
2019-04-20T03:21:54.188Z,6.29
2019-04-20T03:24:26.834Z,6.40
2019-04-20T03:27:20.904Z,6.52
2019-04-20T03:30:22.548Z,6.64
2019-04-20T03:33:02.269Z,6.77
2019-04-20T03:35:19.992Z,6.84
2019-04-20T03:37:49.816Z,6.87
2019-04-20T03:40:09.894Z,6.91
2019-04-20T03:42:26.729Z,6.92
2019-04-20T03:45:00.525Z,6.90
2019-04-20T03:47:36.977Z,6.92
2019-04-20T03:50:18.541Z,6.89
2019-04-20T03:52:57.755Z,6.88
2019-04-20T03:55:51.248Z,6.87
2019-04-20T03:58:24.439Z,6.89
2019-04-20T04:01:03.888Z,6.87
2019-04-20T04:03:53.419Z,6.81
2019-04-20T04:06:16.084Z,6.75
2019-04-20T04:08:39.529Z,6.69
2019-04-20T04:11:26.212Z,6.66
2019-04-20T04:13:37.776Z,6.62
2019-04-20T04:16:10.181Z,6.59
2019-04-20T04:18:40.988Z,6.60
2019-04-20T04:21:12.654Z,6.56
2019-04-20T04:23:56.150Z,6.57
2019-04-20T04:26:27.532Z,6.58
2019-04-20T04:28:56.328Z,6.60
2019-04-20T04:31:33.624Z,6.61
2019-04-20T04:34:12.480Z,6.66
2019-04-20T04:36:26.139Z,6.72
2019-04-20T04:39:06.020Z,6.75
2019-04-20T04:41:31.093Z,6.81
2019-04-20T04:44:00.167Z,6.87
2019-04-20T04:46:14.477Z,6.90
2019-04-20T04:48:48.278Z,6.93
2019-04-20T04:51:21.193Z,6.93
2019-04-20T04:53:55.116Z,6.92
2019-04-20T04:56:22.174Z,6.90
2019-04-20T04:58:49.600Z,6.91
2019-04-20T05:01:22.602Z,6.90
2019-04-20T05:04:19.233Z,6.88
2019-04-20T05:06:33.031Z,6.77
2019-04-20T05:08:54.844Z,6.73
2019-04-20T05:11:21.702Z,6.69
2019-04-20T05:13:56.628Z,6.70
2019-04-20T05:16:42.151Z,6.67
2019-04-20T05:19:15.898Z,6.64
2019-04-20T05:22:03.941Z,6.64
2019-04-20T05:24:48.159Z,6.68
2019-04-20T05:27:51.275Z,6.72
2019-04-20T05:30:01.524Z,6.76
2019-04-20T05:32:39.677Z,6.81
2019-04-20T05:35:23.767Z,6.86
2019-04-20T05:40:22.714Z,7.03
2019-04-20T05:43:01.907Z,7.12
2019-04-20T05:45:24.907Z,7.22
2019-04-20T05:47:52.439Z,7.35
2019-04-20T05:50:31.557Z,7.43
2019-04-20T05:53:07.724Z,7.53
2019-04-20T05:55:35.787Z,7.66
2019-04-20T05:58:02.102Z,7.78
2019-04-20T06:00:37.452Z,7.95
2019-04-20T06:03:02.356Z,8.09
2019-04-20T06:05:38.560Z,8.28
2019-04-20T06:08:05.464Z,8.36
2019-04-20T06:10:40.204Z,8.48
2019-04-20T06:13:00.256Z,8.60
2019-04-20T06:15:46.830Z,8.74
2019-04-20T06:18:28.906Z,8.91
2019-04-20T06:21:12.105Z,9.13
2019-04-20T06:23:56.413Z,9.31
2019-04-20T06:26:43.466Z,9.45
2019-04-20T06:28:50.832Z,9.67
2019-04-20T06:31:42.171Z,9.89
2019-04-20T06:34:33.118Z,10.03
2019-04-20T06:36:57.332Z,10.21
2019-04-20T06:42:10.791Z,10.64
2019-04-20T06:52:23.370Z,10.96
2019-04-20T06:55:03.207Z,11.06
2019-04-20T06:57:34.603Z,11.24
2019-04-20T07:00:08.574Z,11.38
2019-04-20T07:02:35.953Z,11.46
2019-04-20T07:05:05.357Z,11.63
2019-04-20T07:07:33.891Z,11.91
2019-04-20T07:12:32.783Z,12.61
2019-04-20T07:14:55.558Z,12.87
2019-04-20T07:20:42.738Z,13.62
2019-04-20T07:25:40.298Z,14.45
2019-04-20T07:28:09.806Z,14.79
2019-04-20T07:30:35.691Z,15.14
2019-04-20T07:33:04.302Z,15.38
2019-04-20T07:35:38.784Z,15.60
2019-04-20T07:38:23.407Z,15.69
2019-04-20T07:40:35.639Z,15.86
2019-04-20T07:43:02.893Z,16.00
2019-04-20T07:45:33.194Z,16.17
2019-04-20T07:48:13.665Z,16.18
2019-04-20T07:50:32.481Z,16.19
2019-04-20T07:53:01.535Z,16.22
2019-04-20T07:55:46.046Z,16.13
2019-04-20T07:58:01.318Z,16.22
2019-04-20T08:00:51.063Z,16.33
2019-04-20T08:03:44.213Z,16.40
2019-04-20T08:06:16.496Z,16.58
2019-04-20T08:08:56.068Z,16.86
2019-04-20T08:11:22.884Z,17.04
2019-04-20T08:14:02.010Z,17.10
2019-04-20T08:16:40.850Z,17.32
2019-04-20T08:18:53.789Z,17.59
2019-04-20T08:21:32.702Z,17.58
2019-04-20T08:23:58.145Z,17.58
2019-04-20T08:26:16.231Z,17.68
2019-04-20T08:28:52.845Z,17.54
2019-04-20T08:31:50.478Z,17.53
2019-04-20T08:34:32.447Z,17.60
2019-04-20T08:36:56.628Z,17.72
2019-04-20T08:39:37.469Z,17.81
2019-04-20T08:42:01.295Z,17.93
2019-04-20T08:44:51.453Z,18.08
2019-04-20T08:47:10.284Z,18.29
2019-04-20T08:49:37.820Z,18.74
2019-04-20T08:54:28.341Z,18.81
2019-04-20T08:56:45.169Z,18.88
2019-04-20T08:59:09.518Z,19.21
2019-04-20T09:01:39.406Z,19.51
2019-04-20T09:04:17.772Z,20.01
2019-04-20T09:06:52.205Z,20.17
2019-04-20T09:09:37.772Z,20.16
2019-04-20T09:12:16.815Z,20.11
2019-04-20T09:14:21.393Z,19.88
2019-04-20T09:16:59.780Z,19.70
2019-04-20T09:19:37.951Z,19.51
2019-04-20T09:22:24.452Z,19.30
2019-04-20T09:25:14.475Z,19.22
2019-04-20T09:27:28.501Z,18.98
2019-04-20T09:30:00.198Z,19.00
2019-04-20T09:32:35.710Z,19.04
2019-04-20T09:35:07.806Z,19.18
2019-04-20T09:37:47.314Z,19.20
2019-04-20T09:40:45.466Z,19.34
2019-04-20T09:43:02.296Z,19.41
2019-04-20T09:45:56.424Z,19.59
2019-04-20T09:48:31.762Z,19.73
2019-04-20T09:51:15.025Z,19.76
2019-04-20T09:53:35.703Z,19.90
2019-04-20T09:56:08.840Z,20.14
2019-04-20T09:58:37.879Z,20.24
2019-04-20T10:01:08.357Z,20.49
2019-04-20T10:03:24.763Z,20.70
2019-04-20T10:05:53.649Z,20.78
2019-04-20T10:08:22.246Z,20.87
2019-04-20T10:10:51.188Z,21.11
2019-04-20T10:13:22.574Z,21.10
2019-04-20T10:15:51.278Z,21.17
2019-04-20T10:18:19.913Z,21.50
2019-04-20T10:20:47.789Z,22.10
2019-04-20T10:23:16.491Z,22.53
2019-04-20T10:25:44.747Z,22.64
2019-04-20T10:28:13.863Z,22.56
2019-04-20T10:30:41.733Z,22.79
2019-04-20T10:33:10.023Z,23.27
2019-04-20T10:35:37.403Z,23.65
2019-04-20T10:38:09.585Z,23.49
2019-04-20T10:40:46.144Z,23.63
2019-04-20T10:43:08.075Z,23.80
2019-04-20T10:45:37.038Z,23.99
2019-04-20T10:48:05.486Z,24.09
2019-04-20T10:50:34.760Z,24.56
2019-04-20T10:53:03.687Z,24.79
2019-04-20T10:55:31.511Z,24.98
2019-04-20T10:58:01.712Z,25.06
2019-04-20T11:00:41.920Z,25.21
2019-04-20T11:03:11.678Z,24.90
2019-04-20T11:05:40.573Z,25.20
2019-04-20T11:08:08.575Z,24.93
2019-04-20T11:10:52.054Z,24.61
2019-04-20T11:13:07.562Z,25.27
2019-04-20T11:15:36.378Z,25.16
2019-04-20T11:18:05.049Z,25.60
2019-04-20T11:20:35.203Z,25.59
2019-04-20T11:23:06.603Z,25.12
2019-04-20T11:25:35.324Z,24.73
2019-04-20T11:28:04.033Z,24.87
2019-04-20T11:30:32.424Z,24.88
2019-04-20T11:33:02.325Z,24.87
2019-04-20T11:35:35.999Z,24.37
2019-04-20T11:38:01.376Z,23.96
2019-04-20T11:40:29.321Z,23.90
2019-04-20T11:42:57.504Z,23.70
2019-04-20T11:45:26.782Z,23.46
2019-04-20T11:47:55.757Z,23.45
2019-04-20T11:50:25.199Z,23.65
2019-04-20T11:52:53.214Z,23.50
2019-04-20T11:55:22.374Z,23.32
2019-04-20T11:57:51.356Z,23.24
2019-04-20T12:00:25.619Z,23.47
2019-04-20T12:03:23.060Z,23.99
2019-04-20T12:05:46.619Z,24.33
2019-04-20T12:08:13.189Z,24.56
2019-04-20T12:10:43.615Z,24.31
2019-04-20T12:13:14.663Z,24.50
2019-04-20T12:15:43.509Z,24.93
2019-04-20T12:18:11.661Z,25.15
2019-04-20T12:20:40.836Z,25.60
2019-04-20T12:23:10.435Z,26.06
2019-04-20T12:25:40.881Z,25.45
2019-04-20T12:28:11.580Z,24.91
2019-04-20T12:30:40.089Z,25.15
2019-04-20T12:33:09.166Z,25.44
2019-04-20T12:35:38.389Z,25.21
2019-04-20T12:38:07.434Z,24.94
2019-04-20T12:40:35.818Z,24.82
2019-04-20T12:43:04.776Z,24.90
2019-04-20T12:45:33.552Z,25.16
2019-04-20T12:48:01.810Z,25.28
2019-04-20T12:50:29.884Z,25.14
2019-04-20T12:52:58.611Z,24.79
2019-04-20T12:55:28.350Z,25.21
2019-04-20T12:57:56.959Z,25.72
2019-04-20T13:00:41.455Z,26.11
2019-04-20T13:03:13.746Z,26.45
2019-04-20T13:05:43.625Z,26.42
2019-04-20T13:08:13.794Z,26.21
2019-04-20T13:10:45.033Z,26.56
2019-04-20T13:13:36.558Z,27.63
2019-04-20T13:16:16.344Z,27.97
2019-04-20T13:18:50.898Z,28.02
2019-04-20T13:21:19.090Z,28.07
2019-04-20T13:23:47.375Z,27.65
2019-04-20T13:26:15.675Z,27.42
2019-04-20T13:28:44.040Z,26.70
2019-04-20T13:31:13.537Z,26.39
2019-04-20T13:33:43.214Z,26.17
2019-04-20T13:36:12.492Z,26.71
2019-04-20T13:38:40.456Z,27.16
2019-04-20T13:41:09.505Z,27.58
2019-04-20T13:43:39.649Z,27.91
2019-04-20T13:46:09.061Z,28.94
2019-04-20T13:48:39.050Z,29.81
2019-04-20T13:51:07.851Z,29.88
2019-04-20T13:53:37.148Z,30.02
2019-04-20T13:56:05.792Z,30.62
2019-04-20T13:58:51.886Z,31.52
2019-04-20T14:01:41.136Z,29.88
2019-04-20T14:04:16.549Z,29.26
2019-04-20T14:06:45.670Z,30.58
2019-04-20T14:09:13.550Z,31.83
2019-04-20T14:11:43.326Z,32.00
2019-04-20T14:14:13.110Z,31.06
2019-04-20T14:16:41.462Z,30.80
2019-04-20T14:19:09.329Z,31.70
2019-04-20T14:21:38.445Z,32.47
2019-04-20T14:24:06.736Z,32.24
2019-04-20T14:26:38.596Z,31.83
2019-04-20T14:29:05.545Z,32.10
2019-04-20T14:31:34.009Z,32.63
2019-04-20T14:34:04.648Z,33.04
2019-04-20T14:36:32.942Z,32.30
2019-04-20T14:39:02.445Z,31.46
2019-04-20T14:41:30.730Z,30.41
2019-04-20T14:43:58.657Z,29.79
2019-04-20T14:46:27.888Z,30.58
2019-04-20T14:48:56.680Z,32.06
2019-04-20T14:51:25.803Z,32.83
2019-04-20T14:53:54.119Z,33.07
2019-04-20T14:56:23.454Z,32.69
2019-04-20T14:58:57.635Z,32.79
2019-04-20T15:01:34.704Z,32.86
2019-04-20T15:04:09.331Z,33.12
2019-04-20T15:06:36.151Z,33.12
2019-04-20T15:09:06.457Z,33.16
2019-04-20T15:11:40.741Z,33.30
2019-04-20T15:14:08.866Z,32.69
2019-04-20T15:16:38.360Z,32.58
2019-04-20T15:19:41.462Z,32.74
2019-04-20T15:22:27.381Z,32.55
2019-04-20T15:24:55.726Z,33.43
2019-04-20T15:27:24.630Z,33.04
2019-04-20T15:29:53.995Z,31.98
2019-04-20T15:32:22.908Z,31.85
2019-04-20T15:34:51.040Z,31.57
2019-04-20T15:37:20.209Z,31.04
2019-04-20T15:39:49.024Z,30.91
2019-04-20T15:42:17.423Z,30.71
2019-04-20T15:44:45.625Z,30.42
2019-04-20T15:47:13.478Z,30.01
2019-04-20T15:49:42.041Z,29.28
2019-04-20T15:52:12.502Z,29.56
2019-04-20T15:54:41.030Z,30.12
2019-04-20T15:57:16.524Z,30.50
2019-04-20T15:59:40.450Z,30.24
2019-04-20T16:02:23.313Z,30.12
2019-04-20T16:05:16.559Z,30.05
2019-04-20T16:07:51.109Z,30.27
2019-04-20T16:10:15.270Z,29.71
2019-04-20T16:12:44.808Z,28.64
2019-04-20T16:15:13.667Z,27.14
2019-04-20T16:17:45.939Z,27.08
2019-04-20T16:20:17.898Z,26.66
2019-04-20T16:22:42.684Z,25.90
2019-04-20T16:25:23.481Z,25.02
2019-04-20T16:27:51.868Z,24.47
2019-04-20T16:30:20.159Z,24.01
2019-04-20T16:32:48.387Z,23.62
2019-04-20T16:35:16.657Z,23.16
2019-04-20T16:37:44.949Z,23.04
2019-04-20T16:40:13.763Z,22.75
2019-04-20T16:42:42.733Z,22.46
2019-04-20T16:45:11.725Z,22.20
2019-04-20T16:47:39.922Z,22.05
2019-04-20T16:50:09.176Z,21.95
2019-04-20T16:52:38.896Z,21.90
2019-04-20T16:55:08.240Z,21.70
2019-04-20T16:57:39.673Z,21.67
2019-04-20T17:00:07.563Z,21.68
2019-04-20T17:02:36.215Z,21.55
2019-04-20T17:05:05.206Z,21.34
2019-04-20T17:07:37.282Z,21.24
2019-04-20T17:10:07.510Z,21.01
2019-04-20T17:12:35.904Z,20.64
2019-04-20T17:15:05.515Z,20.56
2019-04-20T17:17:33.897Z,20.36
2019-04-20T17:20:02.153Z,20.21
2019-04-20T17:22:30.068Z,20.09
2019-04-20T17:24:58.407Z,19.78
2019-04-20T17:27:46.827Z,19.49
2019-04-20T17:30:39.982Z,19.32
2019-04-20T17:33:24.052Z,19.12
2019-04-20T17:35:57.265Z,18.83
2019-04-20T17:38:22.329Z,18.35
2019-04-20T17:41:06.378Z,18.35
2019-04-20T17:43:30.611Z,18.07
2019-04-20T17:45:58.216Z,17.80
2019-04-20T17:48:33.300Z,17.55
2019-04-20T17:51:10.865Z,17.28
2019-04-20T17:53:47.390Z,17.14
2019-04-20T17:56:10.484Z,16.98
2019-04-20T17:58:41.338Z,16.75
2019-04-20T18:01:52.812Z,16.53
2019-04-20T18:04:44.329Z,16.36
2019-04-20T18:06:56.009Z,16.09
2019-04-20T18:09:34.574Z,15.91
2019-04-20T18:11:47.218Z,15.74
2019-04-20T18:14:35.785Z,15.51
2019-04-20T18:17:06.642Z,15.36
2019-04-20T18:19:24.800Z,15.20
2019-04-20T18:21:58.243Z,15.04
2019-04-20T18:24:50.994Z,14.87
2019-04-20T18:27:18.760Z,14.71
2019-04-20T18:29:49.107Z,14.59
2019-04-20T18:32:09.361Z,14.45
2019-04-20T18:35:06.648Z,14.33
2019-04-20T18:37:34.432Z,14.22
2019-04-20T18:40:10.754Z,14.08
2019-04-20T18:42:39.843Z,14.03
2019-04-20T18:45:21.664Z,13.93
2019-04-20T18:47:59.232Z,13.81
2019-04-20T18:50:16.528Z,13.66
2019-04-20T18:52:39.935Z,13.54
2019-04-20T18:55:17.383Z,13.36
2019-04-20T18:57:41.609Z,13.21
2019-04-20T19:00:17.999Z,13.01
2019-04-20T19:02:46.854Z,12.85
2019-04-20T19:05:13.617Z,12.70
2019-04-20T19:07:52.593Z,12.54
2019-04-20T19:10:18.621Z,12.38
2019-04-20T19:12:52.290Z,12.32
2019-04-20T19:15:53.370Z,12.19
2019-04-20T19:18:20.904Z,12.03
2019-04-20T19:20:41.359Z,11.90
2019-04-20T19:23:10.325Z,11.76
2019-04-20T19:25:40.936Z,11.65
2019-04-20T19:28:08.899Z,11.59
2019-04-20T19:30:46.828Z,11.48
2019-04-20T19:33:27.577Z,11.45
2019-04-20T19:35:52.239Z,11.35
2019-04-20T19:38:19.894Z,11.25
2019-04-20T19:40:53.863Z,11.16
2019-04-20T19:43:22.646Z,11.06
2019-04-20T19:46:24.419Z,10.98
2019-04-20T19:48:27.899Z,10.93
2019-04-20T19:51:08.377Z,10.86
2019-04-20T19:53:36.704Z,10.85
2019-04-20T19:55:58.851Z,10.78
2019-04-20T19:58:30.349Z,10.70
2019-04-20T20:00:51.358Z,10.61
2019-04-20T20:03:17.619Z,10.53
2019-04-20T20:05:48.324Z,10.43
2019-04-20T20:08:21.016Z,10.42
2019-04-20T20:10:46.389Z,10.38
2019-04-20T20:13:15.054Z,10.33
2019-04-20T20:15:45.092Z,10.25
2019-04-20T20:18:30.877Z,10.20
2019-04-20T20:21:00.201Z,10.17
2019-04-20T20:23:14.359Z,10.16
2019-04-20T20:25:45.914Z,10.10
2019-04-20T20:28:25.875Z,10.02
2019-04-20T20:30:57.760Z,10.02
2019-04-20T20:33:29.359Z,10.00
2019-04-20T20:35:53.542Z,9.93
2019-04-20T20:38:22.416Z,9.72
2019-04-20T20:41:00.076Z,9.57
2019-04-20T20:43:28.162Z,9.44
2019-04-20T20:46:01.076Z,9.34
2019-04-20T20:48:29.683Z,9.23
2019-04-20T20:51:06.458Z,9.20
2019-04-20T20:53:36.346Z,9.13
2019-04-20T20:56:01.921Z,9.07
2019-04-20T20:58:33.684Z,9.07
2019-04-20T21:00:57.556Z,9.05
2019-04-20T21:03:29.225Z,9.05
2019-04-20T21:05:51.562Z,9.04
2019-04-20T21:08:21.631Z,9.02
2019-04-20T21:10:51.085Z,9.03
2019-04-20T21:13:21.285Z,8.97
2019-04-20T21:15:57.553Z,8.96
2019-04-20T21:18:43.647Z,8.81
2019-04-20T21:21:06.523Z,8.71
2019-04-20T21:23:34.169Z,8.65
2019-04-20T21:26:07.121Z,8.58
2019-04-20T21:28:40.520Z,8.43
2019-04-20T21:31:15.988Z,8.33
2019-04-20T21:33:40.852Z,8.27
2019-04-20T21:36:14.581Z,8.25
2019-04-20T21:38:42.740Z,8.29
2019-04-20T21:41:15.026Z,8.27
2019-04-20T21:43:44.442Z,8.22
2019-04-20T21:46:13.454Z,8.22
2019-04-20T21:48:55.923Z,8.27
2019-04-20T21:51:27.031Z,8.24
2019-04-20T21:53:42.446Z,8.20
2019-04-20T21:56:12.225Z,8.19
2019-04-20T21:58:48.156Z,8.18
2019-04-20T22:01:18.576Z,8.25
2019-04-20T22:03:40.583Z,8.30
2019-04-20T22:06:09.012Z,8.29
2019-04-20T22:08:40.432Z,8.37
2019-04-20T22:11:08.130Z,8.42
2019-04-20T22:13:39.863Z,8.56
2019-04-20T22:16:10.604Z,8.49
2019-04-20T22:18:48.565Z,8.42
2019-04-20T22:21:17.455Z,8.41
2019-04-20T22:23:58.278Z,8.38
2019-04-20T22:26:18.785Z,8.31
2019-04-20T22:28:38.293Z,8.24
2019-04-20T22:31:06.678Z,8.16
2019-04-20T22:33:39.807Z,8.12
2019-04-20T22:36:07.849Z,8.10
2019-04-20T22:38:58.110Z,8.06
2019-04-20T22:41:27.734Z,8.01
2019-04-20T22:43:55.041Z,7.88
2019-04-20T22:46:29.057Z,7.79
2019-04-20T22:49:14.375Z,7.75
2019-04-20T22:51:39.962Z,7.65
2019-04-20T22:54:12.287Z,7.58
2019-04-20T22:56:42.053Z,7.52
2019-04-20T22:59:02.219Z,7.42
2019-04-20T23:01:32.147Z,7.32
2019-04-20T23:03:54.893Z,7.22
2019-04-20T23:06:25.330Z,7.13
2019-04-20T23:08:59.515Z,7.02
2019-04-20T23:11:28.474Z,7.00
2019-04-20T23:13:53.834Z,6.96
2019-04-20T23:16:21.440Z,6.90
2019-04-20T23:18:49.944Z,6.86
2019-04-20T23:21:19.677Z,6.83
2019-04-20T23:23:52.541Z,6.75
2019-04-20T23:26:27.869Z,6.75
2019-04-20T23:28:53.600Z,6.70
2019-04-20T23:31:22.292Z,6.68
2019-04-20T23:33:49.894Z,6.58
2019-04-20T23:36:30.359Z,6.49
2019-04-20T23:38:54.634Z,6.47
2019-04-20T23:41:20.071Z,6.44
2019-04-20T23:44:18.955Z,6.44
2019-04-20T23:47:18.370Z,6.35
2019-04-20T23:50:05.673Z,6.36
2019-04-20T23:52:42.628Z,6.37
2019-04-20T23:54:58.194Z,6.31
2019-04-20T23:57:21.846Z,6.25
2019-04-20T23:59:51.537Z,6.21
